sensor_id;sensor_type;location;lat;lon;timestamp;pressure;altitude;pressure_sealevel;temperature
40199;BMP280;25906;43.536;26.068;2022-11-12T00:00:20;100150.84;;;11.00
40199;BMP280;25906;43.536;26.068;2022-11-12T00:03:06;100151.53;;;11.01
40199;BMP280;25906;43.536;26.068;2022-11-12T00:05:51;100154.31;;;11.08
40199;BMP280;25906;43.536;26.068;2022-11-12T00:08:37;100147.59;;;11.02
40199;BMP280;25906;43.536;26.068;2022-11-12T00:11:22;100147.09;;;11.11
40199;BMP280;25906;43.536;26.068;2022-11-12T00:14:08;100144.63;;;11.20
40199;BMP280;25906;43.536;26.068;2022-11-12T00:16:53;100138.06;;;11.08
40199;BMP280;25906;43.536;26.068;2022-11-12T00:19:38;100137.56;;;11.25
40199;BMP280;25906;43.536;26.068;2022-11-12T00:22:24;100135.44;;;11.31
40199;BMP280;25906;43.536;26.068;2022-11-12T00:25:09;100141.16;;;11.62
40199;BMP280;25906;43.536;26.068;2022-11-12T00:28:06;100142.41;;;11.54
40199;BMP280;25906;43.536;26.068;2022-11-12T00:30:51;100133.94;;;11.22
40199;BMP280;25906;43.536;26.068;2022-11-12T00:33:43;100136.06;;;11.16
40199;BMP280;25906;43.536;26.068;2022-11-12T00:36:29;100131.81;;;11.28
40199;BMP280;25906;43.536;26.068;2022-11-12T00:39:14;100128.75;;;11.32
40199;BMP280;25906;43.536;26.068;2022-11-12T00:42:00;100133.50;;;11.53
40199;BMP280;25906;43.536;26.068;2022-11-12T00:44:46;100126.41;;;11.36
40199;BMP280;25906;43.536;26.068;2022-11-12T00:47:31;100123.75;;;11.43
40199;BMP280;25906;43.536;26.068;2022-11-12T00:50:17;100127.78;;;11.14
40199;BMP280;25906;43.536;26.068;2022-11-12T00:53:02;100127.25;;;11.23
40199;BMP280;25906;43.536;26.068;2022-11-12T00:55:48;100120.91;;;11.13
40199;BMP280;25906;43.536;26.068;2022-11-12T00:58:35;100127.84;;;10.94
40199;BMP280;25906;43.536;26.068;2022-11-12T01:01:20;100123.63;;;11.13
40199;BMP280;25906;43.536;26.068;2022-11-12T01:04:06;100121.63;;;11.14
40199;BMP280;25906;43.536;26.068;2022-11-12T01:06:51;100134.09;;;10.82
40199;BMP280;25906;43.536;26.068;2022-11-12T01:09:38;100123.63;;;11.13
40199;BMP280;25906;43.536;26.068;2022-11-12T01:12:24;100119.91;;;11.03
40199;BMP280;25906;43.536;26.068;2022-11-12T01:15:09;100115.38;;;10.98
40199;BMP280;25906;43.536;26.068;2022-11-12T01:17:55;100114.75;;;10.78
40199;BMP280;25906;43.536;26.068;2022-11-12T01:20:40;100114.94;;;10.80
40199;BMP280;25906;43.536;26.068;2022-11-12T01:23:26;100116.94;;;10.87
40199;BMP280;25906;43.536;26.068;2022-11-12T01:26:12;100117.75;;;10.95
40199;BMP280;25906;43.536;26.068;2022-11-12T01:28:58;100110.22;;;11.08
40199;BMP280;25906;43.536;26.068;2022-11-12T01:31:44;100112.41;;;10.82
40199;BMP280;25906;43.536;26.068;2022-11-12T01:34:29;100111.75;;;10.61
40199;BMP280;25906;43.536;26.068;2022-11-12T01:37:15;100097.19;;;10.71
40199;BMP280;25906;43.536;26.068;2022-11-12T01:40:00;100110.16;;;10.65
40199;BMP280;25906;43.536;26.068;2022-11-12T01:42:51;100109.78;;;10.41
40199;BMP280;25906;43.536;26.068;2022-11-12T01:45:39;100097.97;;;10.87
40199;BMP280;25906;43.536;26.068;2022-11-12T01:48:37;100101.06;;;10.55
40199;BMP280;25906;43.536;26.068;2022-11-12T01:51:27;100094.53;;;10.79
40199;BMP280;25906;43.536;26.068;2022-11-12T01:54:15;100095.34;;;10.66
40199;BMP280;25906;43.536;26.068;2022-11-12T01:57:02;100104.78;;;10.73
40199;BMP280;25906;43.536;26.068;2022-11-12T01:59:49;100101.00;;;10.76
40199;BMP280;25906;43.536;26.068;2022-11-12T02:02:37;100100.13;;;10.81
40199;BMP280;25906;43.536;26.068;2022-11-12T02:05:24;100101.25;;;10.57
40199;BMP280;25906;43.536;26.068;2022-11-12T02:08:11;100106.09;;;10.51
40199;BMP280;25906;43.536;26.068;2022-11-12T02:10:56;100104.50;;;10.56
40199;BMP280;25906;43.536;26.068;2022-11-12T02:13:43;100108.19;;;10.73
40199;BMP280;25906;43.536;26.068;2022-11-12T02:16:47;100097.28;;;10.58
40199;BMP280;25906;43.536;26.068;2022-11-12T02:19:36;100107.41;;;10.58
40199;BMP280;25906;43.536;26.068;2022-11-12T02:22:22;100095.88;;;10.65
40199;BMP280;25906;43.536;26.068;2022-11-12T02:25:12;100103.19;;;10.29
40199;BMP280;25906;43.536;26.068;2022-11-12T02:27:59;100098.38;;;10.35
40199;BMP280;25906;43.536;26.068;2022-11-12T02:30:47;100103.78;;;10.35
40199;BMP280;25906;43.536;26.068;2022-11-12T02:33:33;100106.66;;;10.30
40199;BMP280;25906;43.536;26.068;2022-11-12T02:36:19;100101.84;;;10.15
40199;BMP280;25906;43.536;26.068;2022-11-12T02:39:04;100107.69;;;10.27
40199;BMP280;25906;43.536;26.068;2022-11-12T02:41:50;100100.97;;;10.20
40199;BMP280;25906;43.536;26.068;2022-11-12T02:44:36;100100.94;;;10.41
40199;BMP280;25906;43.536;26.068;2022-11-12T02:47:21;100097.09;;;10.56
40199;BMP280;25906;43.536;26.068;2022-11-12T02:50:07;100105.16;;;10.49
40199;BMP280;25906;43.536;26.068;2022-11-12T02:52:53;100097.38;;;10.46
40199;BMP280;25906;43.536;26.068;2022-11-12T02:55:38;100100.16;;;10.60
40199;BMP280;25906;43.536;26.068;2022-11-12T02:58:24;100099.38;;;10.73
40199;BMP280;25906;43.536;26.068;2022-11-12T03:01:09;100097.88;;;10.37
40199;BMP280;25906;43.536;26.068;2022-11-12T03:03:55;100093.03;;;10.43
40199;BMP280;25906;43.536;26.068;2022-11-12T03:06:40;100089.50;;;10.55
40199;BMP280;25906;43.536;26.068;2022-11-12T03:09:26;100087.25;;;10.46
40199;BMP280;25906;43.536;26.068;2022-11-12T03:12:12;100088.47;;;10.38
40199;BMP280;25906;43.536;26.068;2022-11-12T03:14:57;100078.31;;;10.58
40199;BMP280;25906;43.536;26.068;2022-11-12T03:17:43;100084.16;;;10.42
40199;BMP280;25906;43.536;26.068;2022-11-12T03:20:28;100084.84;;;10.35
40199;BMP280;25906;43.536;26.068;2022-11-12T03:23:14;100091.75;;;10.44
40199;BMP280;25906;43.536;26.068;2022-11-12T03:26:01;100084.66;;;10.61
40199;BMP280;25906;43.536;26.068;2022-11-12T03:28:49;100090.84;;;10.41
40199;BMP280;25906;43.536;26.068;2022-11-12T03:31:35;100096.84;;;10.27
40199;BMP280;25906;43.536;26.068;2022-11-12T03:34:20;100087.81;;;10.52
40199;BMP280;25906;43.536;26.068;2022-11-12T03:37:06;100089.97;;;10.26
40199;BMP280;25906;43.536;26.068;2022-11-12T03:39:53;100086.13;;;10.34
40199;BMP280;25906;43.536;26.068;2022-11-12T03:42:44;100089.38;;;10.40
40199;BMP280;25906;43.536;26.068;2022-11-12T03:45:30;100091.00;;;10.15
40199;BMP280;25906;43.536;26.068;2022-11-12T03:48:16;100093.84;;;10.30
40199;BMP280;25906;43.536;26.068;2022-11-12T03:51:01;100098.03;;;10.39
40199;BMP280;25906;43.536;26.068;2022-11-12T03:53:46;100099.53;;;10.47
40199;BMP280;25906;43.536;26.068;2022-11-12T03:56:32;100100.00;;;10.58
40199;BMP280;25906;43.536;26.068;2022-11-12T03:59:17;100101.84;;;10.63
40199;BMP280;25906;43.536;26.068;2022-11-12T04:02:03;100106.97;;;10.74
40199;BMP280;25906;43.536;26.068;2022-11-12T04:04:49;100110.09;;;10.86
40199;BMP280;25906;43.536;26.068;2022-11-12T04:08:15;100105.78;;;10.90
40199;BMP280;25906;43.536;26.068;2022-11-12T04:11:19;100107.75;;;10.82
40199;BMP280;25906;43.536;26.068;2022-11-12T04:14:05;100103.88;;;11.05
40199;BMP280;25906;43.536;26.068;2022-11-12T04:16:50;100105.66;;;10.96
40199;BMP280;25906;43.536;26.068;2022-11-12T04:19:54;100110.81;;;10.86
40199;BMP280;25906;43.536;26.068;2022-11-12T04:22:58;100110.03;;;11.06
40199;BMP280;25906;43.536;26.068;2022-11-12T04:25:44;100112.59;;;10.76
40199;BMP280;25906;43.536;26.068;2022-11-12T04:28:48;100109.22;;;10.91
40199;BMP280;25906;43.536;26.068;2022-11-12T04:31:52;100103.53;;;10.74
40199;BMP280;25906;43.536;26.068;2022-11-12T04:34:37;100109.38;;;10.57
40199;BMP280;25906;43.536;26.068;2022-11-12T04:37:25;100108.81;;;10.59
40199;BMP280;25906;43.536;26.068;2022-11-12T04:43:16;100100.91;;;10.33
40199;BMP280;25906;43.536;26.068;2022-11-12T04:46:20;100096.81;;;10.19
40199;BMP280;25906;43.536;26.068;2022-11-12T04:49:06;100104.84;;;10.32
40199;BMP280;25906;43.536;26.068;2022-11-12T04:51:51;100108.19;;;9.98
40199;BMP280;25906;43.536;26.068;2022-11-12T04:54:58;100105.91;;;10.29
40199;BMP280;25906;43.536;26.068;2022-11-12T04:57:43;100108.44;;;10.27
40199;BMP280;25906;43.536;26.068;2022-11-12T05:00:29;100116.31;;;10.18
40199;BMP280;25906;43.536;26.068;2022-11-12T05:03:15;100114.03;;;10.09
40199;BMP280;25906;43.536;26.068;2022-11-12T05:06:01;100135.34;;;10.12
40199;BMP280;25906;43.536;26.068;2022-11-12T05:08:46;100129.28;;;10.40
40199;BMP280;25906;43.536;26.068;2022-11-12T05:11:32;100138.19;;;10.48
40199;BMP280;25906;43.536;26.068;2022-11-12T05:14:18;100140.03;;;10.32
40199;BMP280;25906;43.536;26.068;2022-11-12T05:17:03;100140.50;;;10.44
40199;BMP280;25906;43.536;26.068;2022-11-12T05:19:49;100150.09;;;10.45
40199;BMP280;25906;43.536;26.068;2022-11-12T05:22:35;100152.06;;;10.44
40199;BMP280;25906;43.536;26.068;2022-11-12T05:25:20;100155.03;;;10.53
40199;BMP280;25906;43.536;26.068;2022-11-12T05:28:06;100150.13;;;10.52
40199;BMP280;25906;43.536;26.068;2022-11-12T05:30:51;100141.06;;;10.70
40199;BMP280;25906;43.536;26.068;2022-11-12T05:33:37;100155.00;;;10.74
40199;BMP280;25906;43.536;26.068;2022-11-12T05:36:22;100160.81;;;10.78
40199;BMP280;25906;43.536;26.068;2022-11-12T05:39:07;100156.03;;;10.43
40199;BMP280;25906;43.536;26.068;2022-11-12T05:41:53;100156.56;;;10.42
40199;BMP280;25906;43.536;26.068;2022-11-12T05:44:38;100163.22;;;10.61
40199;BMP280;25906;43.536;26.068;2022-11-12T05:47:24;100150.69;;;10.50
40199;BMP280;25906;43.536;26.068;2022-11-12T05:50:09;100157.28;;;10.42
40199;BMP280;25906;43.536;26.068;2022-11-12T05:52:55;100162.75;;;10.49
40199;BMP280;25906;43.536;26.068;2022-11-12T05:55:40;100167.38;;;10.62
40199;BMP280;25906;43.536;26.068;2022-11-12T05:58:26;100168.03;;;10.55
40199;BMP280;25906;43.536;26.068;2022-11-12T06:01:11;100170.75;;;10.55
40199;BMP280;25906;43.536;26.068;2022-11-12T06:03:57;100179.66;;;10.83
40199;BMP280;25906;43.536;26.068;2022-11-12T06:06:43;100177.06;;;11.05
40199;BMP280;25906;43.536;26.068;2022-11-12T06:09:28;100176.81;;;10.96
40199;BMP280;25906;43.536;26.068;2022-11-12T06:12:14;100175.31;;;10.88
40199;BMP280;25906;43.536;26.068;2022-11-12T06:14:59;100169.94;;;10.95
40199;BMP280;25906;43.536;26.068;2022-11-12T06:17:45;100184.22;;;10.68
40199;BMP280;25906;43.536;26.068;2022-11-12T06:20:30;100185.53;;;11.02
40199;BMP280;25906;43.536;26.068;2022-11-12T06:23:16;100183.00;;;11.04
40199;BMP280;25906;43.536;26.068;2022-11-12T06:26:02;100185.38;;;10.80
40199;BMP280;25906;43.536;26.068;2022-11-12T06:28:48;100191.81;;;10.97
40199;BMP280;25906;43.536;26.068;2022-11-12T06:31:34;100196.38;;;11.09
40199;BMP280;25906;43.536;26.068;2022-11-12T06:34:19;100196.81;;;10.86
40199;BMP280;25906;43.536;26.068;2022-11-12T06:37:05;100186.56;;;10.92
40199;BMP280;25906;43.536;26.068;2022-11-12T06:39:51;100205.25;;;11.02
40199;BMP280;25906;43.536;26.068;2022-11-12T06:42:37;100205.88;;;10.88
40199;BMP280;25906;43.536;26.068;2022-11-12T06:45:22;100199.53;;;10.86
40199;BMP280;25906;43.536;26.068;2022-11-12T06:48:07;100209.19;;;10.74
40199;BMP280;25906;43.536;26.068;2022-11-12T06:50:53;100209.47;;;10.91
40199;BMP280;25906;43.536;26.068;2022-11-12T06:53:39;100210.66;;;11.02
40199;BMP280;25906;43.536;26.068;2022-11-12T06:56:24;100205.41;;;11.04
40199;BMP280;25906;43.536;26.068;2022-11-12T06:59:09;100209.25;;;11.09
40199;BMP280;25906;43.536;26.068;2022-11-12T07:01:55;100203.75;;;11.22
40199;BMP280;25906;43.536;26.068;2022-11-12T07:04:41;100198.19;;;11.07
40199;BMP280;25906;43.536;26.068;2022-11-12T07:07:27;100203.34;;;10.90
40199;BMP280;25906;43.536;26.068;2022-11-12T07:10:13;100196.19;;;11.28
40199;BMP280;25906;43.536;26.068;2022-11-12T07:12:58;100202.78;;;11.54
40199;BMP280;25906;43.536;26.068;2022-11-12T07:15:44;100202.47;;;11.58
40199;BMP280;25906;43.536;26.068;2022-11-12T07:18:29;100204.81;;;11.61
40199;BMP280;25906;43.536;26.068;2022-11-12T07:21:19;100220.22;;;11.31
40199;BMP280;25906;43.536;26.068;2022-11-12T07:24:05;100215.72;;;11.34
40199;BMP280;25906;43.536;26.068;2022-11-12T07:26:50;100210.47;;;11.36
40199;BMP280;25906;43.536;26.068;2022-11-12T07:29:36;100201.72;;;11.22
40199;BMP280;25906;43.536;26.068;2022-11-12T07:32:21;100203.44;;;11.33
40199;BMP280;25906;43.536;26.068;2022-11-12T07:35:07;100191.91;;;11.47
40199;BMP280;25906;43.536;26.068;2022-11-12T07:37:52;100194.53;;;11.67
40199;BMP280;25906;43.536;26.068;2022-11-12T07:40:38;100191.72;;;11.45
40199;BMP280;25906;43.536;26.068;2022-11-12T07:43:23;100202.13;;;11.69
40199;BMP280;25906;43.536;26.068;2022-11-12T07:46:11;100198.19;;;11.85
40199;BMP280;25906;43.536;26.068;2022-11-12T07:48:57;100209.09;;;11.92
40199;BMP280;25906;43.536;26.068;2022-11-12T07:51:42;100211.81;;;12.07
40199;BMP280;25906;43.536;26.068;2022-11-12T07:54:28;100204.44;;;12.15
40199;BMP280;25906;43.536;26.068;2022-11-12T07:57:13;100211.88;;;12.37
40199;BMP280;25906;43.536;26.068;2022-11-12T07:59:58;100218.38;;;12.26
40199;BMP280;25906;43.536;26.068;2022-11-12T08:02:44;100215.06;;;11.98
40199;BMP280;25906;43.536;26.068;2022-11-12T08:05:29;100208.72;;;11.88
40199;BMP280;25906;43.536;26.068;2022-11-12T08:08:15;100207.97;;;11.80
40199;BMP280;25906;43.536;26.068;2022-11-12T08:11:00;100209.69;;;11.63
40199;BMP280;25906;43.536;26.068;2022-11-12T08:13:46;100214.94;;;11.61
40199;BMP280;25906;43.536;26.068;2022-11-12T08:16:32;100220.06;;;11.79
40199;BMP280;25906;43.536;26.068;2022-11-12T08:19:17;100219.94;;;11.49
40199;BMP280;25906;43.536;26.068;2022-11-12T08:22:03;100216.03;;;11.58
40199;BMP280;25906;43.536;26.068;2022-11-12T08:24:49;100222.81;;;11.87
40199;BMP280;25906;43.536;26.068;2022-11-12T08:27:34;100234.34;;;11.80
40199;BMP280;25906;43.536;26.068;2022-11-12T08:30:20;100230.91;;;11.72
40199;BMP280;25906;43.536;26.068;2022-11-12T08:33:05;100235.09;;;11.80
40199;BMP280;25906;43.536;26.068;2022-11-12T08:35:51;100225.47;;;11.72
40199;BMP280;25906;43.536;26.068;2022-11-12T08:38:36;100231.06;;;11.66
40199;BMP280;25906;43.536;26.068;2022-11-12T08:41:23;100231.09;;;11.81
40199;BMP280;25906;43.536;26.068;2022-11-12T08:44:08;100239.44;;;11.76
40199;BMP280;25906;43.536;26.068;2022-11-12T08:46:54;100237.72;;;11.65
40199;BMP280;25906;43.536;26.068;2022-11-12T08:49:39;100236.59;;;11.89
40199;BMP280;25906;43.536;26.068;2022-11-12T08:52:24;100234.28;;;11.57
40199;BMP280;25906;43.536;26.068;2022-11-12T08:55:10;100246.31;;;11.84
40199;BMP280;25906;43.536;26.068;2022-11-12T08:57:55;100241.59;;;11.85
40199;BMP280;25906;43.536;26.068;2022-11-12T09:00:46;100253.34;;;11.80
40199;BMP280;25906;43.536;26.068;2022-11-12T09:03:32;100256.03;;;11.72
40199;BMP280;25906;43.536;26.068;2022-11-12T09:06:17;100251.97;;;11.93
40199;BMP280;25906;43.536;26.068;2022-11-12T09:09:03;100242.41;;;12.00
40199;BMP280;25906;43.536;26.068;2022-11-12T09:11:48;100242.78;;;12.19
40199;BMP280;25906;43.536;26.068;2022-11-12T09:14:34;100251.66;;;12.19
40199;BMP280;25906;43.536;26.068;2022-11-12T09:17:19;100251.66;;;12.04
40199;BMP280;25906;43.536;26.068;2022-11-12T09:20:05;100252.53;;;11.57
40199;BMP280;25906;43.536;26.068;2022-11-12T09:22:51;100245.41;;;11.89
40199;BMP280;25906;43.536;26.068;2022-11-12T09:25:37;100240.19;;;11.91
40199;BMP280;25906;43.536;26.068;2022-11-12T09:28:24;100244.22;;;12.05
40199;BMP280;25906;43.536;26.068;2022-11-12T09:31:09;100246.69;;;11.81
40199;BMP280;25906;43.536;26.068;2022-11-12T09:33:55;100244.63;;;12.16
40199;BMP280;25906;43.536;26.068;2022-11-12T09:36:40;100242.06;;;12.18
40199;BMP280;25906;43.536;26.068;2022-11-12T09:39:26;100244.09;;;12.55
40199;BMP280;25906;43.536;26.068;2022-11-12T09:42:14;100253.31;;;12.30
40199;BMP280;25906;43.536;26.068;2022-11-12T09:45:13;100244.97;;;12.05
40199;BMP280;25906;43.536;26.068;2022-11-12T09:48:07;100253.72;;;12.48
40199;BMP280;25906;43.536;26.068;2022-11-12T09:50:59;100247.00;;;12.64
40199;BMP280;25906;43.536;26.068;2022-11-12T09:53:53;100242.84;;;12.56
40199;BMP280;25906;43.536;26.068;2022-11-12T09:56:40;100239.19;;;12.31
40199;BMP280;25906;43.536;26.068;2022-11-12T09:59:28;100235.69;;;12.01
40199;BMP280;25906;43.536;26.068;2022-11-12T10:02:32;100235.94;;;12.18
40199;BMP280;25906;43.536;26.068;2022-11-12T10:05:25;100238.44;;;12.16
40199;BMP280;25906;43.536;26.068;2022-11-12T10:08:32;100232.00;;;12.41
40199;BMP280;25906;43.536;26.068;2022-11-12T10:18:53;100235.50;;;13.25
40199;BMP280;25906;43.536;26.068;2022-11-12T10:21:57;100224.38;;;12.62
40199;BMP280;25906;43.536;26.068;2022-11-12T10:24:47;100225.09;;;12.55
40199;BMP280;25906;43.536;26.068;2022-11-12T10:27:34;100220.19;;;12.83
40199;BMP280;25906;43.536;26.068;2022-11-12T10:30:23;100214.00;;;12.16
40199;BMP280;25906;43.536;26.068;2022-11-12T10:33:14;100215.88;;;12.36
40199;BMP280;25906;43.536;26.068;2022-11-12T10:39:40;100213.84;;;12.29
40199;BMP280;25906;43.536;26.068;2022-11-12T10:42:25;100214.22;;;12.18
40199;BMP280;25906;43.536;26.068;2022-11-12T10:45:19;100208.59;;;12.31
40199;BMP280;25906;43.536;26.068;2022-11-12T10:48:20;100206.97;;;12.50
40199;BMP280;25906;43.536;26.068;2022-11-12T10:51:18;100210.41;;;12.65
40199;BMP280;25906;43.536;26.068;2022-11-12T10:54:35;100216.06;;;12.75
40199;BMP280;25906;43.536;26.068;2022-11-12T10:57:26;100218.41;;;12.63
40199;BMP280;25906;43.536;26.068;2022-11-12T11:02:58;100203.00;;;12.51
40199;BMP280;25906;43.536;26.068;2022-11-12T11:05:55;100215.50;;;12.46
40199;BMP280;25906;43.536;26.068;2022-11-12T11:08:46;100214.75;;;12.76
40199;BMP280;25906;43.536;26.068;2022-11-12T11:11:32;100213.88;;;12.81
40199;BMP280;25906;43.536;26.068;2022-11-12T11:17:17;100215.66;;;12.71
40199;BMP280;25906;43.536;26.068;2022-11-12T11:23:25;100216.00;;;12.89
40199;BMP280;25906;43.536;26.068;2022-11-12T11:26:41;100209.50;;;12.70
40199;BMP280;25906;43.536;26.068;2022-11-12T11:30:00;100206.78;;;12.70
40199;BMP280;25906;43.536;26.068;2022-11-12T12:01:06;100191.22;;;12.63
40199;BMP280;25906;43.536;26.068;2022-11-12T12:07:36;100196.66;;;12.85
40199;BMP280;25906;43.536;26.068;2022-11-12T12:13:14;100203.72;;;12.66
40199;BMP280;25906;43.536;26.068;2022-11-12T12:22:14;100202.28;;;12.58
40199;BMP280;25906;43.536;26.068;2022-11-12T12:25:08;100205.53;;;12.56
40199;BMP280;25906;43.536;26.068;2022-11-12T12:28:01;100210.78;;;12.17
40199;BMP280;25906;43.536;26.068;2022-11-12T12:30:51;100210.63;;;12.45
40199;BMP280;25906;43.536;26.068;2022-11-12T12:36:46;100205.16;;;12.38
40199;BMP280;25906;43.536;26.068;2022-11-12T12:39:42;100218.03;;;12.74
40199;BMP280;25906;43.536;26.068;2022-11-12T12:42:39;100217.81;;;12.28
40199;BMP280;25906;43.536;26.068;2022-11-12T12:45:36;100213.69;;;12.64
40199;BMP280;25906;43.536;26.068;2022-11-12T12:48:31;100215.31;;;12.74
40199;BMP280;25906;43.536;26.068;2022-11-12T12:51:18;100212.03;;;12.83
40199;BMP280;25906;43.536;26.068;2022-11-12T12:54:03;100210.22;;;12.71
40199;BMP280;25906;43.536;26.068;2022-11-12T12:56:49;100217.69;;;12.63
40199;BMP280;25906;43.536;26.068;2022-11-12T12:59:35;100209.53;;;12.55
40199;BMP280;25906;43.536;26.068;2022-11-12T13:02:23;100212.63;;;12.52
40199;BMP280;25906;43.536;26.068;2022-11-12T13:05:41;100209.16;;;12.74
40199;BMP280;25906;43.536;26.068;2022-11-12T13:08:34;100212.59;;;12.59
40199;BMP280;25906;43.536;26.068;2022-11-12T13:14:48;100213.69;;;12.71
40199;BMP280;25906;43.536;26.068;2022-11-12T13:17:43;100211.31;;;12.90
40199;BMP280;25906;43.536;26.068;2022-11-12T13:20:39;100213.28;;;12.82
40199;BMP280;25906;43.536;26.068;2022-11-12T13:26:54;100212.03;;;12.68
40199;BMP280;25906;43.536;26.068;2022-11-12T13:29:41;100206.81;;;12.63
40199;BMP280;25906;43.536;26.068;2022-11-12T13:32:32;100202.63;;;12.69
40199;BMP280;25906;43.536;26.068;2022-11-12T13:41:17;100199.75;;;12.67
40199;BMP280;25906;43.536;26.068;2022-11-12T13:44:05;100193.53;;;12.89
40199;BMP280;25906;43.536;26.068;2022-11-12T13:46:52;100192.09;;;12.66
40199;BMP280;25906;43.536;26.068;2022-11-12T13:49:41;100198.81;;;12.72
40199;BMP280;25906;43.536;26.068;2022-11-12T13:52:28;100197.03;;;12.67
40199;BMP280;25906;43.536;26.068;2022-11-12T13:55:21;100189.19;;;12.86
40199;BMP280;25906;43.536;26.068;2022-11-12T13:58:25;100195.03;;;12.68
40199;BMP280;25906;43.536;26.068;2022-11-12T14:01:11;100183.25;;;12.43
40199;BMP280;25906;43.536;26.068;2022-11-12T14:03:57;100192.31;;;12.23
40199;BMP280;25906;43.536;26.068;2022-11-12T14:06:45;100187.38;;;12.14
40199;BMP280;25906;43.536;26.068;2022-11-12T14:15:33;100196.09;;;12.42
40199;BMP280;25906;43.536;26.068;2022-11-12T14:21:14;100186.31;;;12.25
40199;BMP280;25906;43.536;26.068;2022-11-12T14:24:01;100180.69;;;12.15
40199;BMP280;25906;43.536;26.068;2022-11-12T14:26:47;100179.63;;;12.18
40199;BMP280;25906;43.536;26.068;2022-11-12T14:29:33;100186.13;;;12.30
40199;BMP280;25906;43.536;26.068;2022-11-12T14:32:18;100187.06;;;12.33
40199;BMP280;25906;43.536;26.068;2022-11-12T14:38:11;100179.59;;;12.11
40199;BMP280;25906;43.536;26.068;2022-11-12T14:41:09;100176.91;;;12.11
40199;BMP280;25906;43.536;26.068;2022-11-12T14:43:57;100174.34;;;11.98
40199;BMP280;25906;43.536;26.068;2022-11-12T14:46:46;100169.69;;;12.36
40199;BMP280;25906;43.536;26.068;2022-11-12T14:49:40;100173.28;;;12.38
40199;BMP280;25906;43.536;26.068;2022-11-12T14:52:30;100178.38;;;12.27
40199;BMP280;25906;43.536;26.068;2022-11-12T14:55:30;100179.47;;;12.24
40199;BMP280;25906;43.536;26.068;2022-11-12T14:58:17;100181.25;;;12.14
40199;BMP280;25906;43.536;26.068;2022-11-12T15:01:27;100183.63;;;12.17
40199;BMP280;25906;43.536;26.068;2022-11-12T15:04:18;100181.44;;;12.31
40199;BMP280;25906;43.536;26.068;2022-11-12T15:07:04;100177.78;;;12.13
40199;BMP280;25906;43.536;26.068;2022-11-12T15:09:50;100179.06;;;12.20
40199;BMP280;25906;43.536;26.068;2022-11-12T15:12:36;100183.06;;;12.19
40199;BMP280;25906;43.536;26.068;2022-11-12T15:15:21;100180.00;;;12.15
40199;BMP280;25906;43.536;26.068;2022-11-12T15:18:15;100187.03;;;12.03
40199;BMP280;25906;43.536;26.068;2022-11-12T15:30:21;100188.88;;;12.52
40199;BMP280;25906;43.536;26.068;2022-11-12T15:35:57;100194.41;;;13.06
40199;BMP280;25906;43.536;26.068;2022-11-12T15:38:48;100206.34;;;13.11
40199;BMP280;25906;43.536;26.068;2022-11-12T15:41:34;100206.28;;;13.26
40199;BMP280;25906;43.536;26.068;2022-11-12T15:44:20;100207.03;;;13.33
40199;BMP280;25906;43.536;26.068;2022-11-12T15:47:08;100198.06;;;13.48
40199;BMP280;25906;43.536;26.068;2022-11-12T15:49:59;100203.88;;;13.44
40199;BMP280;25906;43.536;26.068;2022-11-12T15:52:44;100207.38;;;13.30
40199;BMP280;25906;43.536;26.068;2022-11-12T15:55:31;100214.28;;;13.31
40199;BMP280;25906;43.536;26.068;2022-11-12T15:58:19;100218.59;;;13.41
40199;BMP280;25906;43.536;26.068;2022-11-12T16:01:09;100209.69;;;13.41
40199;BMP280;25906;43.536;26.068;2022-11-12T16:03:55;100208.69;;;13.22
40199;BMP280;25906;43.536;26.068;2022-11-12T16:06:40;100218.44;;;13.32
40199;BMP280;25906;43.536;26.068;2022-11-12T16:09:26;100218.50;;;13.10
40199;BMP280;25906;43.536;26.068;2022-11-12T16:12:12;100225.91;;;13.24
40199;BMP280;25906;43.536;26.068;2022-11-12T16:14:59;100229.66;;;13.36
40199;BMP280;25906;43.536;26.068;2022-11-12T16:17:46;100229.34;;;13.25
40199;BMP280;25906;43.536;26.068;2022-11-12T16:20:33;100233.34;;;13.24
40199;BMP280;25906;43.536;26.068;2022-11-12T16:23:19;100234.78;;;13.25
40199;BMP280;25906;43.536;26.068;2022-11-12T16:26:07;100234.78;;;13.32
40199;BMP280;25906;43.536;26.068;2022-11-12T16:28:53;100235.16;;;13.29
40199;BMP280;25906;43.536;26.068;2022-11-12T16:31:42;100242.00;;;13.44
40199;BMP280;25906;43.536;26.068;2022-11-12T16:34:30;100231.78;;;13.60
40199;BMP280;25906;43.536;26.068;2022-11-12T16:37:16;100241.22;;;13.51
40199;BMP280;25906;43.536;26.068;2022-11-12T16:40:01;100245.22;;;13.50
40199;BMP280;25906;43.536;26.068;2022-11-12T16:42:47;100242.72;;;13.45
40199;BMP280;25906;43.536;26.068;2022-11-12T16:45:34;100242.34;;;13.41
40199;BMP280;25906;43.536;26.068;2022-11-12T16:48:21;100248.53;;;13.34
40199;BMP280;25906;43.536;26.068;2022-11-12T16:51:13;100242.53;;;13.43
40199;BMP280;25906;43.536;26.068;2022-11-12T16:54:00;100253.41;;;13.50
40199;BMP280;25906;43.536;26.068;2022-11-12T16:56:46;100250.91;;;13.45
40199;BMP280;25906;43.536;26.068;2022-11-12T16:59:31;100251.78;;;13.40
40199;BMP280;25906;43.536;26.068;2022-11-12T17:02:16;100245.16;;;13.11
40199;BMP280;25906;43.536;26.068;2022-11-12T17:05:11;100245.69;;;13.17
40199;BMP280;25906;43.536;26.068;2022-11-12T17:07:57;100248.91;;;13.30
40199;BMP280;25906;43.536;26.068;2022-11-12T17:10:43;100252.69;;;13.42
40199;BMP280;25906;43.536;26.068;2022-11-12T17:13:29;100246.91;;;13.38
40199;BMP280;25906;43.536;26.068;2022-11-12T17:16:14;100249.09;;;13.32
40199;BMP280;25906;43.536;26.068;2022-11-12T17:19:00;100249.84;;;13.33
40199;BMP280;25906;43.536;26.068;2022-11-12T17:21:46;100260.56;;;13.09
40199;BMP280;25906;43.536;26.068;2022-11-12T17:24:31;100254.41;;;13.08